createdAt,value
2023-02-09T00:02:12.063Z,47.90
2023-02-09T00:04:40.061Z,47.90
2023-02-09T00:07:08.096Z,47.90
2023-02-09T00:09:35.390Z,48.00
2023-02-09T00:12:20.967Z,47.70
2023-02-09T00:14:48.340Z,47.70
2023-02-09T00:17:20.381Z,47.70
2023-02-09T00:19:47.668Z,47.60
2023-02-09T00:22:14.946Z,47.60
2023-02-09T00:24:44.507Z,47.60
2023-02-09T00:27:11.755Z,47.80
2023-02-09T00:29:41.599Z,47.80
2023-02-09T00:32:08.936Z,47.80
2023-02-09T00:34:38.570Z,47.60
2023-02-09T00:37:08.389Z,47.60
2023-02-09T00:39:38.147Z,48.10
2023-02-09T00:42:11.026Z,47.50
2023-02-09T00:44:40.314Z,47.70
2023-02-09T00:47:09.381Z,48.20
2023-02-09T00:49:37.166Z,47.60
2023-02-09T00:52:04.543Z,47.70
2023-02-09T00:54:33.963Z,47.70
2023-02-09T00:57:05.340Z,47.70
2023-02-09T00:59:34.979Z,47.70
2023-02-09T01:02:04.770Z,47.60
2023-02-09T01:04:32.343Z,47.50
2023-02-09T01:06:59.680Z,47.50
2023-02-09T01:09:27.079Z,47.30
2023-02-09T01:11:54.352Z,47.50
2023-02-09T01:14:24.337Z,47.40
2023-02-09T01:16:53.915Z,47.50
2023-02-09T01:19:23.461Z,47.50
2023-02-09T01:21:51.052Z,47.50
2023-02-09T01:24:20.956Z,47.60
2023-02-09T01:26:48.289Z,47.60
2023-02-09T01:29:19.437Z,47.60
2023-02-09T01:31:47.110Z,47.60
2023-02-09T01:34:19.593Z,47.70
2023-02-09T01:36:48.388Z,47.60
2023-02-09T01:39:15.928Z,47.50
2023-02-09T01:41:43.987Z,47.60
2023-02-09T01:44:11.457Z,47.60
2023-02-09T01:46:39.788Z,47.60
2023-02-09T01:49:12.894Z,47.70
2023-02-09T01:51:48.889Z,47.60
2023-02-09T01:54:26.116Z,47.70
2023-02-09T01:57:05.234Z,47.80
2023-02-09T01:59:36.439Z,47.70
2023-02-09T02:02:05.545Z,47.70
2023-02-09T02:04:34.098Z,47.80
2023-02-09T02:07:23.175Z,47.90
2023-02-09T02:09:51.086Z,47.80
2023-02-09T02:12:18.546Z,47.80
2023-02-09T02:14:50.964Z,47.80
2023-02-09T02:17:33.877Z,47.90
2023-02-09T02:20:32.063Z,47.90
2023-02-09T02:23:16.718Z,47.90
2023-02-09T02:25:55.872Z,47.90
2023-02-09T02:28:36.581Z,47.80
2023-02-09T02:31:31.836Z,47.90
2023-02-09T02:34:10.998Z,47.90
2023-02-09T02:37:07.181Z,48.00
2023-02-09T02:39:52.684Z,48.00
2023-02-09T02:42:48.252Z,48.00
2023-02-09T02:45:30.149Z,48.00
2023-02-09T02:48:05.129Z,48.00
2023-02-09T02:50:35.074Z,48.20
2023-02-09T02:53:07.209Z,47.80
2023-02-09T02:55:37.850Z,47.80
2023-02-09T02:58:08.696Z,47.90
2023-02-09T03:00:50.459Z,48.00
2023-02-09T03:03:25.532Z,47.90
2023-02-09T03:05:54.114Z,48.10
2023-02-09T03:08:21.437Z,48.20
2023-02-09T03:10:51.438Z,48.20
2023-02-09T03:13:36.894Z,48.90
2023-02-09T03:16:32.217Z,48.30
2023-02-09T03:19:27.196Z,48.20
2023-02-09T03:22:08.238Z,48.20
2023-02-09T03:24:46.756Z,48.20
2023-02-09T03:27:20.786Z,48.10
2023-02-09T03:29:52.130Z,48.10
2023-02-09T03:32:20.612Z,48.20
2023-02-09T03:34:48.936Z,48.20
2023-02-09T03:37:17.546Z,48.20
2023-02-09T03:39:45.049Z,48.30
2023-02-09T03:42:12.424Z,48.30
2023-02-09T03:44:42.608Z,48.30
2023-02-09T03:47:12.530Z,48.30
2023-02-09T03:49:41.207Z,48.40
2023-02-09T03:52:11.593Z,48.50
2023-02-09T03:54:39.383Z,48.40
2023-02-09T03:57:07.246Z,48.30
2023-02-09T03:59:35.522Z,48.40
2023-02-09T04:02:07.385Z,48.30
2023-02-09T04:04:35.932Z,48.50
2023-02-09T04:07:03.551Z,48.40
2023-02-09T04:09:31.068Z,48.50
2023-02-09T04:11:58.462Z,48.60
2023-02-09T04:14:28.249Z,48.50
2023-02-09T04:16:57.861Z,48.40
2023-02-09T04:19:25.366Z,48.20
2023-02-09T04:21:52.642Z,48.30
2023-02-09T04:24:23.276Z,48.30
2023-02-09T04:26:52.972Z,48.40
2023-02-09T04:29:20.291Z,48.40
2023-02-09T04:31:47.823Z,48.50
2023-02-09T04:34:17.266Z,48.60
2023-02-09T04:36:47.348Z,48.60
2023-02-09T04:39:14.636Z,48.60
2023-02-09T04:41:44.146Z,48.60
2023-02-09T04:44:11.492Z,48.50
2023-02-09T04:46:41.193Z,48.50
2023-02-09T04:49:08.498Z,48.50
2023-02-09T04:51:38.656Z,48.50
2023-02-09T04:54:08.298Z,48.40
2023-02-09T04:56:36.879Z,48.40
2023-02-09T04:59:23.074Z,48.40
2023-02-09T05:01:55.134Z,48.40
2023-02-09T05:04:26.818Z,48.50
2023-02-09T05:06:54.109Z,48.40
2023-02-09T05:09:21.425Z,48.30
2023-02-09T05:11:48.776Z,48.30
2023-02-09T05:14:16.049Z,48.40
2023-02-09T05:16:43.470Z,48.30
2023-02-09T05:19:10.898Z,48.30
2023-02-09T05:21:40.270Z,48.20
2023-02-09T05:24:07.780Z,48.30
2023-02-09T05:26:35.190Z,48.30
2023-02-09T05:29:03.080Z,48.40
2023-02-09T05:31:30.498Z,48.20
2023-02-09T05:33:57.918Z,48.20
2023-02-09T05:36:25.218Z,48.20
2023-02-09T05:38:57.163Z,48.00
2023-02-09T05:41:42.923Z,48.20
2023-02-09T05:44:12.658Z,48.20
2023-02-09T05:46:39.930Z,48.10
2023-02-09T05:49:07.290Z,48.20
2023-02-09T05:51:34.568Z,48.20
2023-02-09T05:54:04.108Z,48.20
2023-02-09T05:56:35.680Z,48.30
2023-02-09T05:59:04.662Z,48.30
2023-02-09T06:01:32.679Z,48.30
2023-02-09T06:04:02.219Z,48.40
2023-02-09T06:06:29.697Z,48.30
2023-02-09T06:08:59.373Z,49.00
2023-02-09T06:11:26.762Z,48.50
2023-02-09T06:13:54.181Z,48.50
2023-02-09T06:16:21.692Z,48.40
2023-02-09T06:18:49.114Z,48.50
2023-02-09T06:21:18.500Z,48.40
2023-02-09T06:23:45.934Z,48.40
2023-02-09T06:26:16.871Z,48.40
2023-02-09T06:28:44.742Z,48.40
2023-02-09T06:31:12.718Z,48.40
2023-02-09T06:33:42.584Z,48.40
2023-02-09T06:36:12.762Z,48.40
2023-02-09T06:38:40.070Z,48.40
2023-02-09T06:41:07.775Z,48.40
2023-02-09T06:43:38.602Z,48.40
2023-02-09T06:46:08.401Z,48.50
2023-02-09T06:48:36.792Z,48.40
2023-02-09T06:51:12.230Z,48.40
2023-02-09T06:53:45.582Z,48.30
2023-02-09T06:56:16.007Z,48.30
2023-02-09T06:58:43.358Z,48.40
2023-02-09T07:01:38.989Z,49.10
2023-02-09T07:04:06.360Z,48.30
2023-02-09T07:06:33.731Z,48.40
2023-02-09T07:09:03.337Z,48.50
2023-02-09T07:11:30.717Z,48.50
2023-02-09T07:13:58.033Z,48.50
2023-02-09T07:16:25.598Z,48.50
2023-02-09T07:18:55.403Z,48.50
2023-02-09T07:21:26.270Z,48.50
2023-02-09T07:23:56.781Z,48.60
2023-02-09T07:26:24.242Z,48.50
2023-02-09T07:28:51.649Z,48.50
2023-02-09T07:31:19.214Z,48.40
2023-02-09T07:33:49.358Z,48.50
2023-02-09T07:36:17.600Z,48.50
2023-02-09T07:38:47.261Z,48.50
2023-02-09T07:41:18.464Z,48.90
2023-02-09T07:43:47.032Z,48.50
2023-02-09T07:46:17.084Z,48.50
2023-02-09T07:48:44.728Z,48.30
2023-02-09T07:51:27.661Z,48.40
2023-02-09T07:54:05.385Z,48.20
2023-02-09T07:56:34.106Z,47.90
2023-02-09T07:59:03.589Z,47.70
2023-02-09T08:01:31.252Z,47.60
2023-02-09T08:04:01.843Z,47.60
2023-02-09T08:06:43.186Z,47.40
2023-02-09T08:09:16.745Z,47.30
2023-02-09T08:11:55.837Z,47.40
2023-02-09T08:14:31.190Z,47.10
2023-02-09T08:17:28.712Z,47.20
2023-02-09T08:20:10.106Z,46.90
2023-02-09T08:22:43.865Z,46.70
2023-02-09T08:25:20.921Z,46.70
2023-02-09T08:27:49.176Z,46.70
2023-02-09T08:30:20.709Z,46.40
2023-02-09T08:32:55.157Z,46.20
2023-02-09T08:35:22.729Z,46.20
2023-02-09T08:37:50.265Z,46.00
2023-02-09T08:40:18.067Z,45.70
2023-02-09T08:42:51.047Z,45.70
2023-02-09T08:45:31.755Z,46.00
2023-02-09T08:47:59.615Z,45.90
2023-02-09T08:50:27.136Z,45.90
2023-02-09T08:52:58.842Z,45.80
2023-02-09T08:55:33.580Z,45.70
2023-02-09T08:58:01.318Z,45.30
2023-02-09T09:00:28.715Z,45.60
2023-02-09T09:03:02.149Z,45.60
2023-02-09T09:05:37.718Z,45.60
2023-02-09T09:08:05.760Z,45.70
2023-02-09T09:10:36.172Z,45.60
2023-02-09T09:13:03.626Z,45.40
2023-02-09T09:15:30.981Z,45.40
2023-02-09T09:18:01.605Z,45.30
2023-02-09T09:20:31.478Z,45.10
2023-02-09T09:23:03.450Z,44.90
2023-02-09T09:25:30.946Z,44.90
2023-02-09T09:28:01.903Z,44.90
2023-02-09T09:30:33.239Z,44.60
2023-02-09T09:33:10.980Z,44.50
2023-02-09T09:35:43.288Z,44.60
2023-02-09T09:38:16.161Z,44.70
2023-02-09T09:40:48.266Z,44.60
2023-02-09T09:43:31.836Z,43.80
2023-02-09T09:46:09.986Z,44.50
2023-02-09T09:48:49.064Z,44.30
2023-02-09T09:51:45.662Z,44.00
2023-02-09T09:54:25.884Z,44.30
2023-02-09T09:56:56.897Z,43.90
2023-02-09T09:59:32.648Z,43.50
2023-02-09T10:02:25.101Z,43.50
2023-02-09T10:05:14.798Z,43.70
2023-02-09T10:07:54.147Z,43.90
2023-02-09T10:10:44.115Z,43.50
2023-02-09T10:13:25.880Z,43.50
2023-02-09T10:15:56.606Z,42.90
2023-02-09T10:18:31.025Z,43.60
2023-02-09T10:21:14.443Z,44.00
2023-02-09T10:23:52.078Z,43.20
2023-02-09T10:26:31.368Z,43.50
2023-02-09T10:29:18.294Z,43.20
2023-02-09T10:31:50.725Z,43.40
2023-02-09T10:34:43.127Z,43.30
2023-02-09T10:37:21.891Z,43.30
2023-02-09T10:40:12.538Z,43.20
2023-02-09T10:42:49.695Z,43.80
2023-02-09T10:45:44.330Z,43.50
2023-02-09T10:48:12.018Z,43.80
2023-02-09T10:51:12.828Z,43.60
2023-02-09T10:53:57.599Z,42.90
2023-02-09T10:56:34.674Z,43.60
2023-02-09T10:59:17.043Z,43.10
2023-02-09T11:01:56.212Z,43.40
2023-02-09T11:04:26.847Z,43.60
2023-02-09T11:07:01.866Z,43.70
2023-02-09T11:09:33.702Z,43.80
2023-02-09T11:12:01.168Z,43.80
2023-02-09T11:14:28.969Z,44.30
2023-02-09T11:17:13.005Z,43.70
2023-02-09T11:19:52.346Z,43.70
2023-02-09T11:22:34.573Z,43.50
2023-02-09T11:25:32.262Z,43.40
2023-02-09T11:28:11.523Z,43.60
2023-02-09T11:30:57.271Z,43.30
2023-02-09T11:33:48.980Z,42.90
2023-02-09T11:36:25.104Z,43.00
2023-02-09T11:39:01.846Z,43.20
2023-02-09T11:42:01.003Z,43.00
2023-02-09T11:44:37.775Z,42.10
2023-02-09T11:47:15.017Z,42.20
2023-02-09T11:49:52.355Z,42.60
2023-02-09T11:52:35.956Z,43.00
2023-02-09T11:55:28.952Z,43.40
2023-02-09T11:58:06.700Z,43.40
2023-02-09T12:01:04.153Z,43.70
2023-02-09T12:03:38.890Z,43.80
2023-02-09T12:06:27.268Z,43.70
2023-02-09T12:09:26.809Z,43.70
2023-02-09T12:12:27.891Z,43.10
2023-02-09T12:15:04.485Z,43.40
2023-02-09T12:17:57.393Z,43.30
2023-02-09T12:20:29.256Z,43.10
2023-02-09T12:22:57.912Z,43.00
2023-02-09T12:25:51.112Z,43.60
2023-02-09T12:28:24.768Z,42.80
2023-02-09T12:30:55.071Z,41.60
2023-02-09T12:33:22.356Z,42.30
2023-02-09T12:36:10.737Z,42.50
2023-02-09T12:39:04.631Z,42.70
2023-02-09T12:41:35.288Z,41.70
2023-02-09T12:44:11.439Z,42.10
2023-02-09T12:46:44.620Z,41.30
2023-02-09T12:49:14.032Z,41.00
2023-02-09T12:51:50.579Z,41.50
2023-02-09T12:54:50.058Z,41.10
2023-02-09T12:57:17.949Z,41.60
2023-02-09T12:59:55.226Z,41.30
2023-02-09T13:02:31.857Z,41.10
2023-02-09T13:05:11.903Z,41.20
2023-02-09T13:07:39.209Z,41.20
2023-02-09T13:10:17.062Z,41.40
2023-02-09T13:12:54.936Z,40.40
2023-02-09T13:15:22.249Z,41.10
2023-02-09T13:18:21.855Z,41.30
2023-02-09T13:21:27.213Z,41.10
2023-02-09T13:24:14.032Z,41.30
2023-02-09T13:26:57.826Z,40.90
2023-02-09T13:29:28.126Z,40.50
2023-02-09T13:32:16.741Z,40.60
2023-02-09T13:34:53.052Z,40.60
2023-02-09T13:37:41.912Z,41.50
2023-02-09T13:40:28.062Z,41.50
2023-02-09T13:43:01.991Z,41.70
2023-02-09T13:45:30.206Z,41.80
2023-02-09T13:48:00.588Z,41.60
2023-02-09T13:50:31.842Z,41.70
2023-02-09T13:53:12.434Z,41.70
2023-02-09T13:55:40.847Z,41.40
2023-02-09T13:58:14.744Z,41.80
2023-02-09T14:00:49.658Z,42.00
2023-02-09T14:03:22.946Z,41.70
2023-02-09T14:06:15.980Z,41.70
2023-02-09T14:08:43.758Z,41.60
2023-02-09T14:11:17.037Z,41.90
2023-02-09T14:13:51.273Z,41.70
2023-02-09T14:16:27.918Z,41.50
2023-02-09T14:18:59.890Z,41.80
2023-02-09T14:21:40.200Z,41.60
2023-02-09T14:24:20.550Z,41.70
2023-02-09T14:27:03.790Z,41.80
2023-02-09T14:29:35.587Z,41.70
2023-02-09T14:32:32.264Z,41.80
2023-02-09T14:35:23.009Z,42.30
2023-02-09T14:37:52.335Z,42.00
2023-02-09T14:40:34.080Z,42.30
2023-02-09T14:43:10.247Z,42.00
2023-02-09T14:45:44.582Z,42.00
2023-02-09T14:48:22.951Z,42.30
2023-02-09T14:50:56.167Z,42.10
2023-02-09T14:53:28.694Z,42.40
2023-02-09T14:55:57.336Z,42.40
2023-02-09T14:58:30.190Z,42.40
2023-02-09T15:01:01.248Z,42.40
2023-02-09T15:03:36.391Z,42.90
2023-02-09T15:06:05.168Z,43.20
2023-02-09T15:08:39.204Z,43.00
2023-02-09T15:11:29.253Z,42.90
2023-02-09T15:14:06.567Z,42.90
2023-02-09T15:16:34.286Z,42.90
2023-02-09T15:19:04.319Z,43.00
2023-02-09T15:21:32.062Z,43.20
2023-02-09T15:24:02.435Z,43.10
2023-02-09T15:26:35.808Z,43.30
2023-02-09T15:29:14.278Z,43.40
2023-02-09T15:31:46.500Z,43.30
2023-02-09T15:34:16.107Z,43.20
2023-02-09T15:36:43.427Z,43.20
2023-02-09T15:39:27.479Z,43.20
2023-02-09T15:42:13.464Z,42.90
2023-02-09T15:44:59.478Z,43.40
2023-02-09T15:47:59.344Z,43.70
2023-02-09T15:50:53.625Z,44.10
2023-02-09T15:53:32.587Z,44.30
2023-02-09T15:56:03.122Z,44.60
2023-02-09T15:58:48.373Z,44.60
2023-02-09T16:01:20.904Z,44.80
2023-02-09T16:03:51.903Z,44.30
2023-02-09T16:06:24.894Z,44.40
2023-02-09T16:08:55.337Z,44.40
2023-02-09T16:11:27.346Z,44.50
2023-02-09T16:14:10.730Z,44.20
2023-02-09T16:16:38.049Z,44.10
2023-02-09T16:19:15.453Z,44.10
2023-02-09T16:22:00.195Z,44.00
2023-02-09T16:24:33.051Z,43.90
2023-02-09T16:27:11.697Z,43.80
2023-02-09T16:29:39.531Z,43.70
2023-02-09T16:32:21.449Z,43.80
2023-02-09T16:34:49.600Z,43.50
2023-02-09T16:37:30.916Z,44.00
2023-02-09T16:39:58.667Z,43.50
2023-02-09T16:42:30.167Z,43.60
2023-02-09T16:45:03.583Z,43.60
2023-02-09T16:47:34.443Z,43.60
2023-02-09T16:50:13.451Z,43.80
2023-02-09T16:52:49.007Z,43.90
2023-02-09T16:55:34.195Z,43.80
2023-02-09T16:58:04.306Z,43.70
2023-02-09T17:00:35.062Z,43.80
2023-02-09T17:03:28.909Z,44.00
2023-02-09T17:05:57.653Z,44.20
2023-02-09T17:08:29.029Z,44.10
2023-02-09T17:10:56.810Z,44.00
2023-02-09T17:13:25.745Z,44.10
2023-02-09T17:15:56.946Z,44.10
2023-02-09T17:18:34.995Z,44.10
2023-02-09T17:21:06.805Z,44.30
2023-02-09T17:23:35.516Z,44.30
2023-02-09T17:26:03.315Z,44.50
2023-02-09T17:28:33.349Z,44.30
2023-02-09T17:31:05.238Z,44.20
2023-02-09T17:33:33.586Z,44.40
2023-02-09T17:36:25.149Z,44.50
2023-02-09T17:38:53.096Z,44.30
2023-02-09T17:41:26.464Z,44.40
2023-02-09T17:43:56.312Z,44.50
2023-02-09T17:46:23.822Z,44.70
2023-02-09T17:48:51.228Z,44.70
2023-02-09T17:51:28.530Z,44.80
2023-02-09T17:53:55.833Z,44.60
2023-02-09T17:56:23.557Z,44.70
2023-02-09T17:58:54.269Z,44.70
2023-02-09T18:01:30.536Z,44.80
2023-02-09T18:04:02.694Z,44.80
2023-02-09T18:06:40.853Z,44.70
2023-02-09T18:09:13.501Z,44.80
2023-02-09T18:12:13.709Z,44.80
2023-02-09T18:14:41.022Z,44.90
2023-02-09T18:17:08.536Z,45.00
2023-02-09T18:19:45.892Z,45.00
2023-02-09T18:22:17.201Z,45.00
2023-02-09T18:24:47.016Z,45.00
2023-02-09T18:27:24.699Z,45.10
2023-02-09T18:29:52.197Z,45.10
2023-02-09T18:32:21.053Z,45.20
2023-02-09T18:34:48.671Z,45.80
2023-02-09T18:37:18.183Z,45.30
2023-02-09T18:39:46.687Z,45.30
2023-02-09T18:42:20.296Z,46.00
2023-02-09T18:44:50.476Z,45.50
2023-02-09T18:47:20.128Z,45.60
2023-02-09T18:49:47.679Z,45.70
2023-02-09T18:52:19.068Z,45.70
2023-02-09T18:54:46.470Z,45.70
2023-02-09T18:57:14.107Z,45.80
2023-02-09T18:59:41.738Z,45.90
2023-02-09T19:02:17.529Z,46.00
2023-02-09T19:04:45.053Z,46.20
2023-02-09T19:07:14.298Z,46.20
2023-02-09T19:09:46.258Z,46.40
2023-02-09T19:12:13.720Z,46.40
2023-02-09T19:14:44.929Z,46.50
2023-02-09T19:17:17.861Z,46.60
2023-02-09T19:19:45.972Z,46.60
2023-02-09T19:22:19.389Z,46.60
2023-02-09T19:24:49.862Z,46.70
2023-02-09T19:27:20.073Z,46.70
2023-02-09T19:29:47.651Z,46.70
2023-02-09T19:32:17.811Z,46.90
2023-02-09T19:34:46.070Z,46.90
2023-02-09T19:37:17.709Z,47.00
2023-02-09T19:40:03.689Z,47.00
2023-02-09T19:42:34.213Z,47.00
2023-02-09T19:45:06.799Z,47.20
2023-02-09T19:47:37.399Z,47.10
2023-02-09T19:50:05.231Z,47.10
2023-02-09T19:56:03.412Z,47.30
2023-02-09T19:58:30.987Z,47.40
2023-02-09T20:00:58.372Z,47.30
2023-02-09T20:03:30.044Z,47.40
2023-02-09T20:05:57.407Z,47.40
2023-02-09T20:08:24.866Z,47.40
2023-02-09T20:10:52.210Z,47.40
2023-02-09T20:13:19.460Z,47.50
2023-02-09T20:15:49.636Z,47.50
2023-02-09T20:18:17.747Z,47.60
2023-02-09T20:20:47.849Z,47.70
2023-02-09T20:23:17.799Z,47.80
2023-02-09T20:25:45.106Z,47.90
2023-02-09T20:28:15.584Z,47.90
2023-02-09T20:30:46.624Z,47.90
2023-02-09T20:33:14.631Z,48.10
2023-02-09T20:35:46.337Z,48.00
2023-02-09T20:38:16.075Z,48.10
2023-02-09T20:40:46.702Z,48.00
2023-02-09T20:43:32.648Z,48.10
2023-02-09T20:46:24.281Z,48.10
2023-02-09T20:48:52.556Z,48.30
2023-02-09T20:51:20.083Z,48.30
2023-02-09T20:53:47.401Z,48.30
2023-02-09T20:56:14.842Z,48.40
2023-02-09T20:58:42.200Z,48.40
2023-02-09T21:01:10.275Z,48.50
2023-02-09T21:03:37.881Z,48.50
2023-02-09T21:08:39.119Z,48.50
2023-02-09T21:11:06.450Z,48.40
2023-02-09T21:13:34.368Z,48.50
2023-02-09T21:16:03.921Z,48.60
2023-02-09T21:18:31.530Z,48.50
2023-02-09T21:21:00.891Z,48.60
2023-02-09T21:23:30.999Z,48.60
2023-02-09T21:26:06.429Z,48.70
2023-02-09T21:28:36.607Z,48.80
2023-02-09T21:31:13.491Z,48.70
2023-02-09T21:33:40.934Z,48.60
2023-02-09T21:36:09.081Z,48.60
2023-02-09T21:38:41.849Z,48.70
2023-02-09T21:41:39.661Z,48.70
2023-02-09T21:44:10.250Z,48.60
2023-02-09T21:46:43.492Z,48.70
2023-02-09T21:49:14.157Z,48.70
2023-02-09T21:51:42.387Z,48.80
2023-02-09T21:54:17.990Z,48.80
2023-02-09T21:56:46.747Z,48.80
2023-02-09T21:59:16.682Z,48.80
2023-02-09T22:01:48.128Z,48.80
2023-02-09T22:04:15.704Z,48.80
2023-02-09T22:06:43.153Z,48.80
2023-02-09T22:09:13.541Z,48.80
2023-02-09T22:11:42.618Z,48.90
2023-02-09T22:14:10.000Z,49.00
2023-02-09T22:16:39.934Z,49.00
2023-02-09T22:19:07.311Z,48.90
2023-02-09T22:21:34.757Z,49.10
2023-02-09T22:24:02.060Z,49.10
2023-02-09T22:26:31.887Z,49.10
2023-02-09T22:28:59.229Z,49.20
2023-02-09T22:31:28.271Z,49.30
2023-02-09T22:33:55.643Z,49.30
2023-02-09T22:36:23.652Z,49.40
2023-02-09T22:38:51.378Z,49.40
2023-02-09T22:41:23.675Z,49.20
2023-02-09T22:43:54.092Z,49.20
2023-02-09T22:46:24.241Z,49.40
2023-02-09T22:48:59.292Z,49.40
2023-02-09T22:51:29.947Z,49.40
2023-02-09T22:53:58.190Z,49.40
2023-02-09T22:56:26.959Z,49.50
2023-02-09T22:58:57.948Z,49.50
2023-02-09T23:01:30.513Z,49.60
2023-02-09T23:03:58.726Z,49.60
2023-02-09T23:06:28.761Z,49.70
2023-02-09T23:08:59.204Z,49.70
2023-02-09T23:11:27.661Z,49.70
2023-02-09T23:14:11.589Z,49.80
2023-02-09T23:16:40.865Z,49.80
2023-02-09T23:19:11.178Z,49.80
2023-02-09T23:21:41.360Z,49.80
2023-02-09T23:24:12.685Z,49.80
2023-02-09T23:26:40.929Z,49.90
2023-02-09T23:29:11.613Z,49.90
2023-02-09T23:31:39.671Z,50.00
2023-02-09T23:34:07.094Z,50.00
2023-02-09T23:36:35.220Z,50.10
2023-02-09T23:39:05.172Z,50.10
2023-02-09T23:41:33.079Z,50.10
2023-02-09T23:44:00.818Z,50.00
2023-02-09T23:46:31.631Z,50.10
2023-02-09T23:48:59.187Z,50.20
2023-02-09T23:51:35.131Z,50.30
2023-02-09T23:54:08.852Z,50.40
2023-02-09T23:56:39.314Z,50.40
2023-02-09T23:59:10.112Z,50.40
